To NAV CANADA Home Page Login to a new session Search on AWWS site Feedback and Comments Disclaimer Vers la page française équivalente Tips FAQ What's new on the site To the Forecasts and Observations / NOTAM section To "File a Flight Plan" website Publications and other links Update of the User's profile FIC Telephone Numbers My Weather Data Folder Route Weather Data Regional Weather Data Local Weather Data To the Forecasts and Observations / NOTAM section
Request Generated 02/27/2017 at 09:26:11 UTC . Weather information available at that time is displayed.

METAR/TAF

GANDER/GANDER INTL/NL    

METAR CYQX 270900Z 28025G35KT 15SM FEW022 BKN030 M02/M08 A2949 RMK
SC1SC6 PRESRR SLP994=
SPECI CYQX 270837Z 26020G26KT 15SM DRSN FEW024 BKN032 M01/M06 A2947
RMK SC2SC3 PRESRR SLP986=
METAR CYQX 270800Z 27016G23KT 3SM -SHSN DRSN SCT014 BKN025 OVC040
00/M02 A2943 RMK SC3SC3SC2 CVCTV CLD EMBD SLP972=
METAR CYQX 270700Z 25015KT 15SM BKN040 01/M01 A2940 RMK SC7 SLP964=

TAF CYQX 270538Z 2706/2806 25010G20KT P6SM FEW020 TEMPO 2706/2708
BKN020
FM270800 28020G30KT P6SM BKN030 TEMPO 2708/2715 5SM -SHSN BKN020
FM271500 28020G30KT P6SM FEW025
BECMG 2719/2721 24012KT
FM280100 22012G22KT 5SM -SHSN BKN020 OVC120
RMK NXT FCST BY 271200Z=
Your time UTC time
Weather data provided by Environment Canada and NAV CANADA